Time;durP1;ratioP1;P1;durP2;ratioP2;P2;SDS_P1;SDS_P2;PMS_P1;PMS_P2;Temp;Humidity;BMP_temperature;BMP_pressure;BME280_temperature;BME280_humidity;BME280_pressure;Samples;Min_cycle;Max_cycle;Signal;HPM_P1;HPM_P2
2023/08/05 00:00:44;;;;;;;6.38;5.70;;;;;;;26.85;40.57;94460.63;5090257;28;20035;-79
2023/08/05 00:03:09;;;;;;;6.65;5.35;;;;;;;26.82;40.68;94433.53;5087955;28;20031;-80
2023/08/05 00:05:35;;;;;;;6.10;5.50;;;;;;;26.82;40.73;94441.22;5090083;28;20416;-80
2023/08/05 00:08:00;;;;;;;10.27;5.80;;;;;;;26.80;40.82;94432.59;5087279;28;20106;-80
2023/08/05 00:10:25;;;;;;;7.30;5.70;;;;;;;26.78;40.87;94424.66;5089372;28;20115;-80
2023/08/05 00:12:51;;;;;;;7.35;5.90;;;;;;;26.79;40.82;94414.91;5089642;28;20035;-79
2023/08/05 00:15:16;;;;;;;8.13;6.18;;;;;;;26.72;41.13;94416.38;5088540;28;20111;-81
2023/08/05 00:17:41;;;;;;;7.13;5.75;;;;;;;26.73;41.07;94419.97;5090117;28;20417;-79
2023/08/05 00:20:08;;;;;;;7.00;5.60;;;;;;;26.70;41.15;94418.25;5088101;28;20051;-81
2023/08/05 00:22:34;;;;;;;5.43;4.43;;;;;;;26.59;41.15;94413.66;5071644;28;20040;-81
2023/08/05 00:24:59;;;;;;;6.80;5.60;;;;;;;26.54;41.36;94416.66;5086826;28;20066;-81
2023/08/05 00:27:25;;;;;;;11.80;5.95;;;;;;;26.50;41.53;94414.19;5087726;28;20028;-80
2023/08/05 00:29:50;;;;;;;6.70;5.57;;;;;;;26.48;41.56;94405.53;5088952;28;20020;-81
2023/08/05 00:32:16;;;;;;;6.40;5.20;;;;;;;26.42;41.66;94404.94;5088602;28;20077;-81
2023/08/05 00:34:41;;;;;;;6.15;5.38;;;;;;;26.40;41.69;94401.91;5089421;28;20521;-81
2023/08/05 00:37:06;;;;;;;7.47;5.70;;;;;;;26.39;41.74;94406.78;5086566;28;20028;-81
2023/08/05 00:39:32;;;;;;;7.38;5.47;;;;;;;26.36;41.81;94407.13;5088145;28;20021;-81
2023/08/05 00:41:57;;;;;;;5.78;5.28;;;;;;;26.31;42.06;94414.41;5087671;28;20468;-81
2023/08/05 00:44:23;;;;;;;6.45;5.57;;;;;;;26.25;42.19;94399.72;5088929;28;20075;-80
2023/08/05 00:46:49;;;;;;;7.47;5.47;;;;;;;26.21;42.15;94402.16;5087951;28;20020;-81
2023/08/05 00:49:14;;;;;;;8.10;5.97;;;;;;;26.16;42.44;94395.38;5087362;28;20081;-81
2023/08/05 00:51:40;;;;;;;9.00;6.00;;;;;;;26.08;42.42;94393.78;5091709;28;20374;-81
2023/08/05 00:54:06;;;;;;;7.03;6.03;;;;;;;26.07;42.47;94398.69;5086828;28;20039;-81
2023/08/05 00:56:32;;;;;;;6.07;5.25;;;;;;;26.06;42.56;94391.53;5087345;28;20039;-81
2023/08/05 00:58:57;;;;;;;8.68;5.63;;;;;;;26.07;42.41;94386.66;5087255;28;20032;-81
2023/08/05 01:01:22;;;;;;;5.57;4.80;;;;;;;26.00;42.46;94399.38;5087607;28;20472;-80
2023/08/05 01:03:48;;;;;;;8.18;5.72;;;;;;;25.94;42.65;94398.78;5069212;28;20024;-81
2023/08/05 01:06:14;;;;;;;8.63;5.65;;;;;;;25.89;42.76;94399.66;5087296;28;20099;-80
2023/08/05 01:08:40;;;;;;;5.85;5.25;;;;;;;25.87;42.98;94394.59;5086531;28;20132;-81
2023/08/05 01:11:06;;;;;;;6.40;5.75;;;;;;;25.81;42.89;94388.38;5086703;28;20102;-81
2023/08/05 01:13:32;;;;;;;6.88;5.93;;;;;;;25.87;42.81;94382.59;5087263;28;20048;-81
2023/08/05 01:15:57;;;;;;;6.18;5.57;;;;;;;25.91;42.90;94394.25;5087258;28;20498;-81
2023/08/05 01:18:26;;;;;;;8.63;6.00;;;;;;;25.87;43.14;94388.97;5087268;28;20109;-80
2023/08/05 01:20:54;;;;;;;6.93;5.63;;;;;;;25.89;42.92;94388.41;5068515;28;20046;-81
2023/08/05 01:23:30;;;;;;;8.27;5.72;;;;;;;25.85;43.04;94383.13;5086936;28;20024;-81
2023/08/05 01:25:56;;;;;;;6.50;5.90;;;;;;;25.80;43.25;94378.38;5086530;28;20324;-81
2023/08/05 01:28:21;;;;;;;9.20;6.00;;;;;;;25.76;43.29;94377.25;5087359;28;20363;-81
2023/08/05 01:30:47;;;;;;;7.65;5.63;;;;;;;25.74;43.24;94379.84;5087068;28;20052;-81
2023/08/05 01:33:14;;;;;;;6.80;5.50;;;;;;;25.71;43.36;94369.66;5086710;28;20036;-81
2023/08/05 01:35:40;;;;;;;7.45;5.88;;;;;;;25.65;43.61;94376.19;5087261;28;20016;-81
2023/08/05 01:38:05;;;;;;;7.68;5.85;;;;;;;25.68;43.27;94377.13;5085384;28;20032;-81
2023/08/05 01:40:32;;;;;;;7.28;5.75;;;;;;;25.63;43.44;94378.81;5088253;28;20495;-81
2023/08/05 01:42:58;;;;;;;7.13;5.78;;;;;;;25.62;43.40;94374.47;5086920;28;20161;-81
2023/08/05 01:45:24;;;;;;;8.25;6.05;;;;;;;25.57;43.69;94374.59;5069368;28;20016;-81
2023/08/05 01:47:49;;;;;;;6.50;5.90;;;;;;;25.57;43.65;94383.78;5088037;28;20024;-81
2023/08/05 01:50:14;;;;;;;6.82;5.90;;;;;;;25.48;43.79;94373.03;5086439;28;20460;-81
2023/08/05 01:52:40;;;;;;;7.95;5.80;;;;;;;25.48;44.01;94377.91;5088242;28;20024;-81
2023/08/05 01:55:05;;;;;;;7.57;5.80;;;;;;;25.45;43.71;94373.38;5088037;28;20026;-81
2023/08/05 01:57:31;;;;;;;7.13;5.88;;;;;;;25.42;43.69;94381.63;5088226;28;20059;-80
2023/08/05 01:59:56;;;;;;;8.07;5.53;;;;;;;25.43;43.94;94388.00;5086409;28;20154;-80
2023/08/05 02:02:22;;;;;;;7.95;6.05;;;;;;;25.37;44.15;94384.56;5087311;28;20103;-80
2023/08/05 02:04:47;;;;;;;7.45;5.60;;;;;;;25.38;44.18;94386.06;5087381;28;20045;-80
2023/08/05 02:07:13;;;;;;;6.40;5.72;;;;;;;25.40;43.97;94383.44;5085301;28;20091;-80
2023/08/05 02:09:38;;;;;;;6.28;5.68;;;;;;;25.39;43.97;94379.88;5085636;28;20051;-80
2023/08/05 02:12:04;;;;;;;6.55;5.88;;;;;;;25.35;44.25;94375.94;5084654;28;20028;-80
2023/08/05 02:14:29;;;;;;;7.15;5.82;;;;;;;25.28;44.34;94368.16;5087740;28;20041;-80
2023/08/05 02:16:54;;;;;;;7.88;5.30;;;;;;;25.23;44.45;94357.78;5085840;28;20036;-80
2023/08/05 02:19:20;;;;;;;6.70;5.90;;;;;;;25.21;44.42;94366.78;5087207;28;20019;-80
2023/08/05 02:21:45;;;;;;;6.28;5.57;;;;;;;25.19;44.47;94372.22;5086459;28;20020;-80
2023/08/05 02:24:11;;;;;;;6.20;5.60;;;;;;;25.16;44.55;94376.84;5086771;28;20438;-80
2023/08/05 02:26:37;;;;;;;7.43;5.50;;;;;;;25.15;44.50;94378.16;5087122;28;20016;-80
2023/08/05 02:29:02;;;;;;;6.18;4.70;;;;;;;25.16;44.55;94382.47;5084899;28;20035;-80
2023/08/05 02:31:28;;;;;;;8.27;6.22;;;;;;;25.10;44.56;94379.03;5087307;28;20103;-80
2023/08/05 02:33:53;;;;;;;6.43;5.70;;;;;;;25.06;44.67;94380.69;5067340;28;20452;-81
2023/08/05 02:36:18;;;;;;;6.60;5.63;;;;;;;24.97;45.02;94375.50;5086982;28;20063;-80
2023/08/05 02:38:44;;;;;;;8.23;6.20;;;;;;;24.99;44.78;94378.50;5085565;28;20024;-80
2023/08/05 02:41:09;;;;;;;5.78;5.00;;;;;;;25.02;44.84;94378.19;5087073;28;20523;-80
2023/08/05 02:43:35;;;;;;;6.43;5.70;;;;;;;25.03;44.87;94373.31;5084716;28;20031;-80
2023/08/05 02:46:00;;;;;;;6.80;5.75;;;;;;;25.01;44.84;94375.94;5084854;28;20060;-80
2023/08/05 02:48:26;;;;;;;9.32;5.65;;;;;;;24.98;44.85;94368.56;5086970;28;20060;-80
2023/08/05 02:50:52;;;;;;;6.18;5.25;;;;;;;24.98;44.84;94363.69;5084391;28;20547;-80
2023/08/05 02:53:19;;;;;;;6.45;5.85;;;;;;;24.93;44.76;94372.25;5085546;28;20367;-80
2023/08/05 02:55:44;;;;;;;6.03;5.38;;;;;;;24.97;44.73;94367.81;5084058;28;20467;-80
2023/08/05 02:58:09;;;;;;;7.05;5.65;;;;;;;24.92;44.87;94353.91;5088875;28;20051;-80
2023/08/05 03:00:35;;;;;;;8.48;6.05;;;;;;;24.88;44.97;94369.03;5084195;28;20115;-80
2023/08/05 03:03:00;;;;;;;7.43;5.18;;;;;;;24.89;44.90;94347.31;5086577;28;20122;-79
2023/08/05 03:05:26;;;;;;;6.15;5.25;;;;;;;24.79;45.12;94363.88;5085092;28;20105;-79
2023/08/05 03:07:51;;;;;;;6.18;5.38;;;;;;;24.77;45.42;94360.09;5085491;28;20067;-79
2023/08/05 03:10:17;;;;;;;7.25;5.60;;;;;;;24.70;45.26;94364.31;5085247;28;20403;-79
2023/08/05 03:12:42;;;;;;;6.07;5.45;;;;;;;24.69;45.55;94376.88;5067068;28;20316;-79
2023/08/05 03:15:08;;;;;;;6.50;5.90;;;;;;;24.68;45.35;94360.56;5086876;28;20016;-80
2023/08/05 03:17:34;;;;;;;7.60;5.70;;;;;;;24.70;45.38;94366.38;5084906;28;20103;-80
2023/08/05 03:20:05;;;;;;;7.00;5.80;;;;;;;24.70;45.22;94372.00;5085285;28;20039;-80
2023/08/05 03:22:30;;;;;;;7.28;5.78;;;;;;;24.68;45.33;94371.81;5088679;28;20019;-80
2023/08/05 03:24:56;;;;;;;7.18;5.53;;;;;;;24.70;45.05;94377.63;5089705;28;20545;-80
2023/08/05 03:27:21;;;;;;;6.80;5.55;;;;;;;24.75;45.12;94360.63;5090525;28;20436;-81
2023/08/05 03:29:47;;;;;;;8.65;5.82;;;;;;;24.72;45.16;94361.75;5089143;28;20035;-80
2023/08/05 03:32:13;;;;;;;6.38;5.45;;;;;;;24.69;44.97;94362.06;5089422;28;20028;-81
2023/08/05 03:34:38;;;;;;;5.55;5.05;;;;;;;24.62;45.45;94371.91;5087656;28;20032;-81
2023/08/05 03:37:04;;;;;;;8.00;5.43;;;;;;;24.59;45.37;94368.13;5089073;28;20035;-80
2023/08/05 03:39:29;;;;;;;6.18;5.57;;;;;;;24.60;45.33;94380.91;5089299;28;20039;-81
2023/08/05 03:41:55;;;;;;;11.50;5.40;;;;;;;24.64;45.51;94383.34;5090004;28;20016;-81
2023/08/05 03:44:20;;;;;;;6.97;6.18;;;;;;;24.61;45.13;94378.84;5089950;28;20028;-80
2023/08/05 03:46:45;;;;;;;5.90;4.97;;;;;;;24.62;45.40;94380.34;5087922;28;20036;-80
2023/08/05 03:49:11;;;;;;;9.02;6.57;;;;;;;24.64;45.44;94377.75;5072345;28;20024;-81
2023/08/05 03:51:36;;;;;;;6.28;5.15;;;;;;;24.67;45.30;94379.47;5088191;28;20024;-81
2023/08/05 03:54:02;;;;;;;6.90;5.57;;;;;;;24.58;45.48;94369.44;5090420;28;20523;-81
2023/08/05 03:56:27;;;;;;;6.90;5.50;;;;;;;24.54;45.61;94373.88;5088759;28;20508;-81
2023/08/05 03:58:56;;;;;;;6.90;5.78;;;;;;;24.51;45.84;94358.84;5090315;28;20477;-80
2023/08/05 04:01:22;;;;;;;8.70;5.78;;;;;;;24.49;45.59;94355.84;5089649;28;20108;-81
2023/08/05 04:03:51;;;;;;;7.72;6.00;;;;;;;24.51;45.73;94360.91;5089062;28;20495;-81
2023/08/05 04:06:19;;;;;;;6.32;5.55;;;;;;;24.51;45.49;94361.66;5088807;28;20027;-81
2023/08/05 04:08:44;;;;;;;6.82;5.60;;;;;;;24.49;45.49;94360.72;5086676;28;20171;-80
2023/08/05 04:11:10;;;;;;;5.75;5.00;;;;;;;24.48;45.19;94357.13;5071857;28;20162;-80
2023/08/05 04:13:39;;;;;;;7.45;6.32;;;;;;;24.50;45.51;94357.34;5088599;28;20031;-81
2023/08/05 04:16:06;;;;;;;6.10;5.43;;;;;;;24.51;45.52;94352.50;5088545;28;20398;-81
2023/08/05 04:18:35;;;;;;;6.82;5.00;;;;;;;24.54;45.27;94357.75;5087977;28;20311;-81
2023/08/05 04:21:03;;;;;;;6.82;5.20;;;;;;;24.51;45.39;94375.72;5087090;28;20383;-81
2023/08/05 04:23:31;;;;;;;7.05;5.18;;;;;;;24.58;45.34;94371.50;5089463;28;20055;-81
2023/08/05 04:25:57;;;;;;;6.38;5.60;;;;;;;24.62;45.26;94366.28;5088017;28;20520;-80
2023/08/05 04:28:23;;;;;;;6.25;5.03;;;;;;;24.64;44.99;94369.31;5088505;28;20038;-80
2023/08/05 04:30:48;;;;;;;6.60;5.95;;;;;;;24.61;45.27;94373.22;5087881;28;20111;-81
2023/08/05 04:33:14;;;;;;;6.63;5.43;;;;;;;24.61;45.09;94368.34;5088923;28;20020;-81
2023/08/05 04:35:45;;;;;;;5.85;5.20;;;;;;;24.61;45.04;94362.75;5087495;28;20036;-80
2023/08/05 04:38:10;;;;;;;6.18;5.57;;;;;;;24.67;44.58;94367.47;5087317;28;20129;-79
2023/08/05 04:40:36;;;;;;;7.85;5.90;;;;;;;24.73;45.01;94379.34;5089521;28;20520;-79
2023/08/05 04:43:03;;;;;;;8.40;5.60;;;;;;;24.74;44.58;94378.81;5086308;28;20039;-81
2023/08/05 04:45:28;;;;;;;5.85;5.13;;;;;;;24.73;44.46;94376.53;5071211;28;20107;-81
2023/08/05 04:47:53;;;;;;;8.27;5.50;;;;;;;24.74;44.89;94375.25;5087866;28;20099;-80
2023/08/05 04:50:19;;;;;;;6.60;5.07;;;;;;;24.77;44.58;94386.13;5087776;28;20034;-79
2023/08/05 04:52:45;;;;;;;6.90;5.75;;;;;;;24.76;44.47;94376.19;5086976;28;20089;-80
2023/08/05 04:55:12;;;;;;;5.30;4.80;;;;;;;24.86;44.69;94377.25;5088816;28;20020;-80
2023/08/05 04:57:37;;;;;;;6.30;5.65;;;;;;;24.91;44.35;94381.25;5088478;28;20024;-80
2023/08/05 05:00:03;;;;;;;6.47;5.50;;;;;;;24.87;44.61;94375.19;5087836;28;20030;-79
2023/08/05 05:02:29;;;;;;;7.05;5.65;;;;;;;25.00;44.18;94391.25;5089376;28;20107;-80
2023/08/05 05:04:54;;;;;;;7.72;5.18;;;;;;;25.05;44.33;94379.13;5094172;28;20039;-80
2023/08/05 05:07:20;;;;;;;8.38;5.70;;;;;;;25.08;44.26;94386.53;5089485;28;20088;-79
2023/08/05 05:09:45;;;;;;;7.60;5.60;;;;;;;25.16;43.79;94382.47;5085953;28;20044;-80
2023/08/05 05:12:11;;;;;;;5.80;5.18;;;;;;;25.24;43.61;94381.81;5088698;28;20020;-79
2023/08/05 05:14:43;;;;;;;7.57;5.32;;;;;;;25.26;43.62;94382.78;5086465;28;20131;-80
2023/08/05 05:17:08;;;;;;;7.57;5.63;;;;;;;25.30;43.74;94376.81;5086527;28;20027;-80
2023/08/05 05:19:33;;;;;;;9.00;5.43;;;;;;;25.37;43.69;94378.94;5088291;28;20089;-80
2023/08/05 05:21:59;;;;;;;6.93;5.13;;;;;;;25.39;43.40;94373.50;5086703;28;20028;-80
2023/08/05 05:24:24;;;;;;;7.60;5.20;;;;;;;25.46;43.06;94374.88;5088459;28;20032;-80
2023/08/05 05:26:49;;;;;;;6.28;4.95;;;;;;;25.42;42.97;94363.97;5085410;28;20031;-79
2023/08/05 05:29:15;;;;;;;6.35;5.60;;;;;;;25.44;43.28;94369.81;5088253;28;20563;-80
2023/08/05 05:31:41;;;;;;;8.30;5.40;;;;;;;25.41;43.56;94370.91;5087323;28;20035;-80
2023/08/05 05:34:06;;;;;;;6.65;5.40;;;;;;;25.43;43.75;94376.75;5086410;28;20078;-80
2023/08/05 05:36:32;;;;;;;9.15;5.10;;;;;;;25.51;43.29;94365.53;5086332;28;20497;-80
2023/08/05 05:38:57;;;;;;;8.70;6.00;;;;;;;25.56;43.17;94376.66;5087060;28;20489;-80
2023/08/05 05:41:22;;;;;;;8.18;5.75;;;;;;;25.59;43.03;94383.28;5086923;28;20028;-80
2023/08/05 05:43:48;;;;;;;6.15;5.50;;;;;;;25.62;42.94;94377.28;5085227;28;20044;-80
2023/08/05 05:46:14;;;;;;;7.53;5.70;;;;;;;25.65;43.12;94373.38;5086879;28;20020;-80
2023/08/05 05:48:40;;;;;;;6.72;6.10;;;;;;;25.74;43.01;94377.78;5085349;28;20161;-80
2023/08/05 05:51:05;;;;;;;7.20;5.90;;;;;;;25.86;42.79;94366.97;5088012;28;20106;-79
2023/08/05 05:53:31;;;;;;;7.03;5.55;;;;;;;25.87;42.76;94365.69;5085834;28;20031;-80
2023/08/05 05:55:56;;;;;;;6.82;5.18;;;;;;;25.87;42.62;94357.25;5086992;28;20355;-79
2023/08/05 05:58:22;;;;;;;7.72;5.22;;;;;;;25.83;43.06;94362.47;5087481;28;20027;-80
2023/08/05 06:00:47;;;;;;;6.60;5.90;;;;;;;25.85;43.22;94362.66;5084878;28;20020;-79
2023/08/05 06:03:12;;;;;;;8.75;6.28;;;;;;;25.93;43.71;94357.84;5087916;28;20043;-80
2023/08/05 06:05:39;;;;;;;7.25;6.25;;;;;;;26.04;43.71;94359.63;5084817;28;20443;-79
2023/08/05 06:08:05;;;;;;;9.02;6.32;;;;;;;26.11;43.42;94365.28;5086357;28;20044;-80
2023/08/05 06:10:30;;;;;;;8.48;5.88;;;;;;;26.23;43.17;94359.34;5085088;28;20031;-80
2023/08/05 06:12:56;;;;;;;7.55;5.80;;;;;;;26.32;43.05;94356.00;5085879;28;20106;-80
2023/08/05 06:15:22;;;;;;;6.30;5.65;;;;;;;26.40;42.62;94342.72;5085597;28;20028;-81
2023/08/05 06:17:49;;;;;;;6.13;5.10;;;;;;;26.48;42.50;94352.00;5084914;28;20267;-79
2023/08/05 06:20:15;;;;;;;7.15;5.80;;;;;;;26.54;42.46;94346.94;5087397;28;20056;-80
2023/08/05 06:22:40;;;;;;;6.85;6.15;;;;;;;26.65;41.71;94343.03;5085710;28;20607;-79
2023/08/05 06:25:06;;;;;;;6.95;6.25;;;;;;;26.69;41.80;94343.44;5085975;28;20032;-79
2023/08/05 06:27:31;;;;;;;7.15;5.65;;;;;;;26.78;41.33;94325.97;5085951;28;20031;-80
2023/08/05 06:29:57;;;;;;;7.13;5.72;;;;;;;26.72;41.31;94323.34;5087147;28;20028;-79
2023/08/05 06:32:22;;;;;;;6.30;5.70;;;;;;;26.70;41.30;94323.16;5086697;28;20016;-81
2023/08/05 06:34:48;;;;;;;6.57;5.45;;;;;;;26.71;41.48;94321.06;5086184;28;20016;-81
2023/08/05 06:37:13;;;;;;;5.85;5.30;;;;;;;26.73;41.54;94316.41;5087079;28;20028;-81
2023/08/05 06:39:39;;;;;;;7.00;5.80;;;;;;;26.78;41.09;94302.66;5085155;28;20034;-81
2023/08/05 06:42:04;;;;;;;7.10;6.40;;;;;;;26.83;40.79;94305.31;5087171;28;20538;-79
2023/08/05 06:44:30;;;;;;;7.82;6.35;;;;;;;26.85;41.02;94301.97;5085134;28;20463;-81
2023/08/05 06:46:55;;;;;;;6.40;5.70;;;;;;;26.95;40.41;94302.91;5087058;28;20431;-80
2023/08/05 06:49:20;;;;;;;6.13;5.53;;;;;;;26.98;40.73;94302.53;5085454;28;20042;-81
2023/08/05 06:51:47;;;;;;;6.53;5.93;;;;;;;27.02;40.79;94296.53;5085177;28;20065;-80
2023/08/05 06:54:12;;;;;;;6.95;5.80;;;;;;;27.14;40.45;94288.50;5086355;28;20028;-81
2023/08/05 06:56:38;;;;;;;7.13;6.25;;;;;;;27.21;40.20;94282.88;5085216;28;20016;-81
2023/08/05 06:59:03;;;;;;;7.47;6.43;;;;;;;27.26;40.31;94276.28;5086785;28;20494;-81
2023/08/05 07:01:29;;;;;;;11.05;5.38;;;;;;;27.30;40.21;94275.91;5083402;28;20028;-81
2023/08/05 07:03:55;;;;;;;7.43;5.55;;;;;;;27.36;39.55;94278.56;5085442;28;20032;-81
2023/08/05 07:06:20;;;;;;;6.43;5.55;;;;;;;27.39;39.98;94283.06;5084961;28;20050;-81
2023/08/05 07:08:45;;;;;;;7.60;5.30;;;;;;;27.51;39.44;94279.28;5086844;28;20048;-79
2023/08/05 07:11:11;;;;;;;6.22;5.40;;;;;;;27.62;38.87;94274.59;5086748;28;20054;-80
2023/08/05 07:13:36;;;;;;;6.95;5.43;;;;;;;27.58;39.06;94269.31;5085259;28;20455;-79
2023/08/05 07:16:03;;;;;;;6.85;5.53;;;;;;;27.61;39.39;94276.66;5085174;28;20379;-80
2023/08/05 07:18:31;;;;;;;6.40;5.50;;;;;;;27.68;39.31;94270.25;5083332;28;20020;-80
2023/08/05 07:20:57;;;;;;;5.32;4.80;;;;;;;27.79;38.79;94271.94;5068625;28;20020;-79
2023/08/05 07:23:22;;;;;;;6.03;5.43;;;;;;;27.87;38.83;94269.09;5083297;28;20426;-81
2023/08/05 07:25:48;;;;;;;8.73;5.18;;;;;;;28.01;38.28;94271.16;5085042;28;20043;-80
2023/08/05 07:28:13;;;;;;;6.47;5.28;;;;;;;28.07;38.29;94270.94;5067181;28;20063;-80
2023/08/05 07:30:39;;;;;;;5.82;5.18;;;;;;;28.11;38.78;94271.31;5084062;28;20174;-80
2023/08/05 07:33:07;;;;;;;7.30;5.22;;;;;;;28.20;38.37;94267.13;5084712;28;20026;-79
2023/08/05 07:35:33;;;;;;;5.90;5.35;;;;;;;28.26;38.13;94274.09;5083095;28;20115;-81
2023/08/05 07:38:00;;;;;;;7.13;5.82;;;;;;;28.39;37.77;94266.72;5086351;28;20027;-80
2023/08/05 07:40:27;;;;;;;9.18;5.72;;;;;;;28.45;37.94;94270.84;5083502;28;20028;-80
2023/08/05 07:42:53;;;;;;;7.93;5.35;;;;;;;28.50;37.64;94261.41;5084915;28;20197;-80
2023/08/05 07:45:21;;;;;;;6.20;5.35;;;;;;;28.58;37.07;94250.06;5084645;28;20549;-81
2023/08/05 07:47:47;;;;;;;7.25;5.70;;;;;;;28.56;37.57;94247.81;5084607;28;20418;-81
2023/08/05 07:50:20;;;;;;;5.50;5.00;;;;;;;28.71;37.73;94249.78;5084550;28;20024;-81
2023/08/05 07:52:45;;;;;;;7.20;5.05;;;;;;;28.88;37.22;94256.88;5084879;28;20031;-80
2023/08/05 07:55:11;;;;;;;9.52;5.45;;;;;;;28.96;37.15;94255.53;5086337;28;20024;-80
2023/08/05 07:57:37;;;;;;;5.68;5.10;;;;;;;29.02;36.50;94256.06;5084347;28;20101;-81
2023/08/05 08:00:04;;;;;;;8.65;5.03;;;;;;;29.06;37.30;94259.22;5086380;28;20020;-80
2023/08/05 08:02:29;;;;;;;7.82;5.05;;;;;;;29.18;36.89;94250.28;5066580;28;20032;-80
2023/08/05 08:04:55;;;;;;;8.43;5.85;;;;;;;29.23;36.65;94237.97;5084440;28;20039;-80
2023/08/05 08:07:24;;;;;;;7.90;5.97;;;;;;;29.39;36.22;94249.94;5087494;28;20106;-80
2023/08/05 08:09:50;;;;;;;6.15;4.90;;;;;;;29.43;36.37;94244.63;5087517;28;20132;-80
2023/08/05 08:12:15;;;;;;;6.63;5.35;;;;;;;29.47;36.28;94247.78;5090764;28;20102;-81
2023/08/05 08:14:40;;;;;;;6.93;5.03;;;;;;;29.53;36.77;94240.56;5086870;28;20020;-80
2023/08/05 08:17:06;;;;;;;7.20;5.20;;;;;;;29.61;36.94;94238.44;5088566;28;20020;-80
2023/08/05 08:19:31;;;;;;;6.53;5.40;;;;;;;29.70;35.33;94228.53;5087829;28;20024;-80
2023/08/05 08:21:57;;;;;;;7.95;5.60;;;;;;;29.78;35.74;94234.88;5089476;28;20016;-80
2023/08/05 08:24:22;;;;;;;6.60;4.90;;;;;;;29.83;35.47;94231.06;5088414;28;20028;-80
2023/08/05 08:26:47;;;;;;;8.48;5.95;;;;;;;29.87;35.86;94225.69;5087379;28;20028;-80
2023/08/05 08:29:13;;;;;;;10.60;5.32;;;;;;;29.94;36.04;94220.56;5089312;28;20119;-80
2023/08/05 08:31:38;;;;;;;6.07;5.57;;;;;;;30.05;35.81;94214.38;5087744;28;20029;-81
2023/08/05 08:34:04;;;;;;;6.72;5.07;;;;;;;30.17;35.07;94214.66;5088206;28;20020;-81
2023/08/05 08:36:29;;;;;;;7.97;5.45;;;;;;;30.20;35.34;94213.47;5086055;28;20172;-81
2023/08/05 08:38:54;;;;;;;7.78;5.57;;;;;;;30.29;35.28;94222.06;5088083;28;20031;-81
2023/08/05 08:41:20;;;;;;;8.13;5.90;;;;;;;30.35;35.27;94213.31;5086121;28;20107;-79
2023/08/05 08:43:47;;;;;;;10.10;5.85;;;;;;;30.46;35.26;94221.28;5070563;28;20028;-81
2023/08/05 08:46:13;;;;;;;8.25;5.95;;;;;;;30.62;34.67;94219.75;5087414;28;20031;-81
2023/08/05 08:48:40;;;;;;;6.90;6.30;;;;;;;30.70;34.69;94216.81;5086176;28;20035;-82
2023/08/05 08:51:06;;;;;;;6.43;5.65;;;;;;;30.78;34.49;94211.78;5087897;28;20035;-81
2023/08/05 08:53:32;;;;;;;5.90;5.32;;;;;;;30.90;34.71;94218.41;5085406;28;20028;-81
2023/08/05 08:55:57;;;;;;;6.20;5.60;;;;;;;30.98;34.22;94215.47;5087611;28;20506;-81
2023/08/05 08:58:23;;;;;;;6.97;5.88;;;;;;;31.08;34.10;94218.34;5085564;28;20046;-81
2023/08/05 09:00:49;;;;;;;9.38;6.28;;;;;;;31.15;33.68;94214.66;5089045;28;20024;-81
2023/08/05 09:03:15;;;;;;;7.85;5.97;;;;;;;31.22;33.99;94213.78;5086631;28;20047;-81
2023/08/05 09:05:44;;;;;;;9.20;6.50;;;;;;;31.34;34.20;94206.22;5086327;28;20426;-81
2023/08/05 09:08:09;;;;;;;7.35;6.22;;;;;;;31.49;33.95;94210.91;5087266;28;20380;-81
2023/08/05 09:10:37;;;;;;;7.45;6.28;;;;;;;31.59;33.91;94205.97;5085271;28;20175;-81
2023/08/05 09:13:03;;;;;;;6.90;6.20;;;;;;;31.76;33.04;94207.22;5088653;28;20032;-81
2023/08/05 09:15:33;;;;;;;7.20;6.32;;;;;;;31.88;32.51;94208.88;5069763;28;20048;-81
2023/08/05 09:17:59;;;;;;;9.05;6.57;;;;;;;31.95;33.18;94204.44;5087296;28;20047;-81
2023/08/05 09:20:24;;;;;;;7.40;6.60;;;;;;;32.11;32.54;94194.25;5085614;28;20482;-81
2023/08/05 09:22:54;;;;;;;9.02;7.50;;;;;;;32.30;32.36;94202.03;5086383;28;20048;-81
2023/08/05 09:25:20;;;;;;;8.07;6.03;;;;;;;32.44;32.21;94213.72;5086898;28;20020;-81
2023/08/05 09:27:47;;;;;;;7.20;6.03;;;;;;;32.61;31.28;94213.53;5085191;28;20764;-80
2023/08/05 09:30:16;;;;;;;8.25;6.70;;;;;;;32.75;31.64;94199.59;5087189;28;20027;-81
2023/08/05 09:32:47;;;;;;;7.53;6.65;;;;;;;32.89;31.31;94197.78;5085142;28;20119;-81
2023/08/05 09:35:16;;;;;;;9.38;7.07;;;;;;;33.11;31.29;94201.44;5086776;28;20024;-81
2023/08/05 09:37:49;;;;;;;7.25;6.55;;;;;;;33.26;30.77;94192.53;5085441;28;20024;-81
2023/08/05 09:40:16;;;;;;;7.93;7.07;;;;;;;33.44;30.21;94181.69;5085962;28;20037;-81
2023/08/05 09:42:43;;;;;;;9.40;6.70;;;;;;;33.61;30.22;94179.91;5086761;28;20025;-81
2023/08/05 09:45:12;;;;;;;7.43;6.72;;;;;;;33.78;29.59;94182.53;5086164;28;20132;-81
2023/08/05 09:47:38;;;;;;;8.48;6.38;;;;;;;33.95;29.33;94182.28;5088075;28;20062;-81
2023/08/05 09:50:08;;;;;;;6.85;6.07;;;;;;;34.10;29.21;94181.09;5086127;28;20016;-81
2023/08/05 09:52:33;;;;;;;6.32;5.72;;;;;;;34.23;29.04;94185.47;5086412;28;20047;-81
2023/08/05 09:55:14;;;;;;;6.78;6.07;;;;;;;34.32;28.56;94188.25;5086738;28;20115;-81
2023/08/05 09:57:43;;;;;;;6.25;5.65;;;;;;;34.50;28.65;94177.31;5086196;28;20028;-81
2023/08/05 10:00:11;;;;;;;6.50;5.90;;;;;;;34.63;28.30;94175.97;5086580;28;20089;-81
2023/08/05 10:02:37;;;;;;;6.85;5.70;;;;;;;34.80;28.59;94169.94;5085434;28;20155;-81
2023/08/05 10:05:03;;;;;;;9.48;5.93;;;;;;;34.99;28.58;94168.25;5086220;28;20207;-81
2023/08/05 10:07:29;;;;;;;6.80;6.10;;;;;;;35.09;27.63;94166.75;5084255;28;20028;-81
2023/08/05 10:09:54;;;;;;;7.05;5.85;;;;;;;35.24;27.49;94164.78;5085979;28;20098;-81
2023/08/05 10:12:28;;;;;;;7.65;6.30;;;;;;;35.45;27.63;94158.22;5085218;28;20040;-81
2023/08/05 10:14:56;;;;;;;6.22;5.63;;;;;;;35.58;26.52;94158.31;5084505;28;20162;-81
2023/08/05 10:17:21;;;;;;;6.30;5.70;;;;;;;35.72;26.83;94166.25;5087706;28;20028;-81
2023/08/05 10:19:49;;;;;;;8.15;5.72;;;;;;;35.83;26.73;94168.34;5084811;28;20449;-80
2023/08/05 10:22:21;;;;;;;6.47;5.60;;;;;;;36.08;26.65;94164.84;5086074;28;20020;-81
2023/08/05 10:24:56;;;;;;;8.07;5.50;;;;;;;36.26;25.99;94171.59;5084277;28;20112;-80
2023/08/05 10:27:39;;;;;;;6.28;5.68;;;;;;;36.40;26.45;94154.50;5085487;28;20293;-80
2023/08/05 10:30:07;;;;;;;7.43;5.90;;;;;;;36.53;26.00;94150.97;5068464;28;20097;-81
2023/08/05 10:32:33;;;;;;;6.20;5.50;;;;;;;36.69;25.48;94163.31;5085512;28;20027;-80
2023/08/05 10:35:40;;;;;;;6.95;5.10;;;;;;;36.80;25.13;94155.28;5087103;28;20024;-81
2023/08/05 10:38:19;;;;;;;6.28;5.32;;;;;;;36.93;24.91;94152.50;5086162;28;20028;-81
2023/08/05 10:40:46;;;;;;;5.68;5.18;;;;;;;37.09;24.88;94157.59;5085937;28;20020;-81
2023/08/05 10:43:33;;;;;;;6.72;5.28;;;;;;;37.07;25.26;94152.50;5086860;28;20051;-81
2023/08/05 10:45:59;;;;;;;7.53;5.40;;;;;;;37.12;24.70;94147.75;5083973;28;20024;-81
2023/08/05 10:48:35;;;;;;;5.72;5.10;;;;;;;37.22;24.77;94142.53;5085475;28;20028;-81
2023/08/05 10:51:07;;;;;;;7.68;5.72;;;;;;;37.36;24.45;94145.47;5086273;28;20036;-81
2023/08/05 10:53:33;;;;;;;5.90;4.97;;;;;;;37.47;24.09;94136.75;5085834;28;20035;-80
2023/08/05 10:55:59;;;;;;;5.82;5.13;;;;;;;37.55;23.80;94122.09;5085600;28;20020;-81
2023/08/05 10:58:27;;;;;;;6.85;5.57;;;;;;;37.72;23.82;94117.94;5084972;28;20414;-81
2023/08/05 11:01:00;;;;;;;7.82;5.07;;;;;;;37.76;23.61;94114.53;5085513;28;20112;-81
2023/08/05 11:03:38;;;;;;;6.85;5.57;;;;;;;37.87;23.62;94116.56;5084681;28;20036;-81
2023/08/05 11:06:04;;;;;;;7.20;4.70;;;;;;;37.91;23.77;94117.53;5085566;28;20115;-81
2023/08/05 11:08:31;;;;;;;5.10;4.60;;;;;;;37.93;23.27;94116.88;5084540;28;20044;-81
2023/08/05 11:11:00;;;;;;;9.98;5.25;;;;;;;38.02;22.95;94118.75;5084183;28;20557;-80
2023/08/05 11:13:26;;;;;;;5.40;4.90;;;;;;;38.06;22.92;94107.47;5085113;28;20070;-81
2023/08/05 11:16:11;;;;;;;6.35;4.40;;;;;;;38.14;23.13;94102.16;5085182;28;20074;-81
2023/08/05 11:18:42;;;;;;;7.38;5.55;;;;;;;38.20;22.92;94093.84;5086535;28;20036;-81
2023/08/05 11:21:13;;;;;;;10.60;5.93;;;;;;;38.26;22.52;94099.13;5084985;28;20099;-81
2023/08/05 11:23:41;;;;;;;7.40;4.97;;;;;;;38.21;22.89;94086.72;5084252;28;20072;-81
2023/08/05 11:26:07;;;;;;;5.65;5.13;;;;;;;38.28;23.04;94095.63;5085174;28;20274;-81
2023/08/05 11:28:33;;;;;;;6.22;4.93;;;;;;;38.37;23.27;94091.75;5084862;28;20115;-81
2023/08/05 11:31:00;;;;;;;6.65;5.97;;;;;;;38.55;23.07;94089.03;5085294;28;20487;-81